sensor_id;sensor_type;location;lat;lon;timestamp;pressure;altitude;pressure_sealevel;temperature;humidity
27613;BME280;15036;48.094;-1.690;2023-02-10T00:01:42;103211.13;;;14.07;51.29
27613;BME280;15036;48.094;-1.690;2023-02-10T00:04:07;103214.50;;;14.27;50.72
27613;BME280;15036;48.094;-1.690;2023-02-10T00:06:33;103216.63;;;14.33;50.64
27613;BME280;15036;48.094;-1.690;2023-02-10T00:09:00;103214.25;;;14.38;50.37
27613;BME280;15036;48.094;-1.690;2023-02-10T00:11:27;103212.56;;;14.45;50.22
27613;BME280;15036;48.094;-1.690;2023-02-10T00:14:13;103212.09;;;14.49;50.23
27613;BME280;15036;48.094;-1.690;2023-02-10T00:16:38;103209.66;;;14.46;50.28
27613;BME280;15036;48.094;-1.690;2023-02-10T00:19:04;103212.59;;;14.53;50.14
27613;BME280;15036;48.094;-1.690;2023-02-10T00:21:30;103219.84;;;14.62;49.87
27613;BME280;15036;48.094;-1.690;2023-02-10T00:23:56;103212.31;;;14.64;49.98
27613;BME280;15036;48.094;-1.690;2023-02-10T00:26:21;103203.25;;;14.71;49.73
27613;BME280;15036;48.094;-1.690;2023-02-10T00:28:47;103206.28;;;14.60;50.11
27613;BME280;15036;48.094;-1.690;2023-02-10T00:31:14;103207.34;;;14.67;49.96
27613;BME280;15036;48.094;-1.690;2023-02-10T00:33:40;103205.41;;;14.60;49.82
27613;BME280;15036;48.094;-1.690;2023-02-10T00:36:11;103205.09;;;14.63;49.98
27613;BME280;15036;48.094;-1.690;2023-02-10T00:38:38;103207.31;;;14.59;49.96
27613;BME280;15036;48.094;-1.690;2023-02-10T00:41:07;103201.97;;;14.58;49.91
27613;BME280;15036;48.094;-1.690;2023-02-10T00:43:33;103201.25;;;14.56;50.03
27613;BME280;15036;48.094;-1.690;2023-02-10T00:45:59;103196.81;;;14.55;49.99
27613;BME280;15036;48.094;-1.690;2023-02-10T00:48:24;103198.50;;;14.56;50.13
27613;BME280;15036;48.094;-1.690;2023-02-10T00:50:50;103200.78;;;14.60;50.08
27613;BME280;15036;48.094;-1.690;2023-02-10T00:53:15;103192.03;;;14.65;50.00
27613;BME280;15036;48.094;-1.690;2023-02-10T00:55:40;103197.69;;;14.55;50.07
27613;BME280;15036;48.094;-1.690;2023-02-10T00:58:06;103198.19;;;14.59;49.93
27613;BME280;15036;48.094;-1.690;2023-02-10T01:00:31;103196.47;;;14.58;49.95
27613;BME280;15036;48.094;-1.690;2023-02-10T01:02:56;103196.94;;;14.45;50.24
27613;BME280;15036;48.094;-1.690;2023-02-10T01:05:22;103198.81;;;14.45;50.30
27613;BME280;15036;48.094;-1.690;2023-02-10T01:07:47;103194.19;;;14.45;50.32
27613;BME280;15036;48.094;-1.690;2023-02-10T01:10:13;103194.97;;;14.63;49.70
27613;BME280;15036;48.094;-1.690;2023-02-10T01:12:38;103197.25;;;14.42;50.48
27613;BME280;15036;48.094;-1.690;2023-02-10T01:15:04;103196.06;;;14.45;50.55
27613;BME280;15036;48.094;-1.690;2023-02-10T01:17:29;103197.81;;;14.54;50.18
27613;BME280;15036;48.094;-1.690;2023-02-10T01:19:54;103193.72;;;14.58;50.14
27613;BME280;15036;48.094;-1.690;2023-02-10T01:22:24;103197.44;;;14.41;50.37
27613;BME280;15036;48.094;-1.690;2023-02-10T01:24:49;103191.25;;;14.39;50.29
27613;BME280;15036;48.094;-1.690;2023-02-10T01:27:15;103193.69;;;14.42;50.53
27613;BME280;15036;48.094;-1.690;2023-02-10T01:29:40;103191.94;;;14.41;50.67
27613;BME280;15036;48.094;-1.690;2023-02-10T01:32:12;103196.88;;;14.29;50.90
27613;BME280;15036;48.094;-1.690;2023-02-10T01:34:38;103186.63;;;14.39;50.58
27613;BME280;15036;48.094;-1.690;2023-02-10T01:37:03;103189.84;;;14.35;50.82
27613;BME280;15036;48.094;-1.690;2023-02-10T01:39:28;103186.91;;;14.36;50.70
27613;BME280;15036;48.094;-1.690;2023-02-10T01:41:54;103191.53;;;14.28;50.83
27613;BME280;15036;48.094;-1.690;2023-02-10T01:46:45;103188.19;;;14.16;50.90
27613;BME280;15036;48.094;-1.690;2023-02-10T01:49:13;103184.69;;;14.06;51.32
27613;BME280;15036;48.094;-1.690;2023-02-10T01:51:52;103183.53;;;14.17;51.01
27613;BME280;15036;48.094;-1.690;2023-02-10T01:54:23;103183.47;;;14.09;51.39
27613;BME280;15036;48.094;-1.690;2023-02-10T01:56:51;103184.03;;;14.12;51.14
27613;BME280;15036;48.094;-1.690;2023-02-10T01:59:18;103190.31;;;14.05;51.22
27613;BME280;15036;48.094;-1.690;2023-02-10T02:01:44;103190.72;;;14.10;51.22
27613;BME280;15036;48.094;-1.690;2023-02-10T02:04:10;103189.53;;;14.12;51.23
27613;BME280;15036;48.094;-1.690;2023-02-10T02:06:36;103187.78;;;14.11;51.25
27613;BME280;15036;48.094;-1.690;2023-02-10T02:09:01;103181.00;;;14.23;51.16
27613;BME280;15036;48.094;-1.690;2023-02-10T02:14:28;103190.06;;;14.16;51.30
27613;BME280;15036;48.094;-1.690;2023-02-10T02:17:08;103192.47;;;14.19;51.18
27613;BME280;15036;48.094;-1.690;2023-02-10T02:19:55;103188.72;;;14.20;51.08
27613;BME280;15036;48.094;-1.690;2023-02-10T02:33:21;103178.41;;;14.22;51.03
27613;BME280;15036;48.094;-1.690;2023-02-10T02:35:53;103182.34;;;14.19;51.04
27613;BME280;15036;48.094;-1.690;2023-02-10T02:38:20;103169.47;;;14.20;51.03
27613;BME280;15036;48.094;-1.690;2023-02-10T02:40:45;103177.50;;;14.13;51.20
27613;BME280;15036;48.094;-1.690;2023-02-10T02:43:12;103176.16;;;14.17;50.89
27613;BME280;15036;48.094;-1.690;2023-02-10T02:48:19;103170.09;;;14.06;51.32
27613;BME280;15036;48.094;-1.690;2023-02-10T02:53:49;103174.22;;;14.10;51.22
27613;BME280;15036;48.094;-1.690;2023-02-10T02:56:24;103168.41;;;14.13;51.34
27613;BME280;15036;48.094;-1.690;2023-02-10T03:01:28;103162.72;;;14.06;51.28
27613;BME280;15036;48.094;-1.690;2023-02-10T03:04:06;103159.41;;;14.03;51.50
27613;BME280;15036;48.094;-1.690;2023-02-10T03:06:34;103153.97;;;14.11;51.25
27613;BME280;15036;48.094;-1.690;2023-02-10T03:08:59;103153.78;;;14.04;51.34
27613;BME280;15036;48.094;-1.690;2023-02-10T03:11:25;103154.31;;;14.08;51.36
27613;BME280;15036;48.094;-1.690;2023-02-10T03:13:50;103160.75;;;13.99;51.50
27613;BME280;15036;48.094;-1.690;2023-02-10T03:16:17;103159.97;;;14.06;51.39
27613;BME280;15036;48.094;-1.690;2023-02-10T03:18:42;103165.59;;;14.05;51.65
27613;BME280;15036;48.094;-1.690;2023-02-10T03:21:07;103160.09;;;14.05;51.65
27613;BME280;15036;48.094;-1.690;2023-02-10T03:23:33;103157.91;;;14.08;51.51
27613;BME280;15036;48.094;-1.690;2023-02-10T03:25:59;103159.09;;;14.06;51.52
27613;BME280;15036;48.094;-1.690;2023-02-10T03:28:25;103158.06;;;14.07;51.52
27613;BME280;15036;48.094;-1.690;2023-02-10T03:30:50;103157.22;;;14.06;51.61
27613;BME280;15036;48.094;-1.690;2023-02-10T03:33:17;103158.41;;;14.04;51.60
27613;BME280;15036;48.094;-1.690;2023-02-10T03:35:44;103155.88;;;14.10;51.30
27613;BME280;15036;48.094;-1.690;2023-02-10T03:38:10;103158.94;;;14.07;51.59
27613;BME280;15036;48.094;-1.690;2023-02-10T03:40:35;103158.28;;;14.13;51.21
27613;BME280;15036;48.094;-1.690;2023-02-10T03:43:02;103160.84;;;14.15;51.13
27613;BME280;15036;48.094;-1.690;2023-02-10T03:45:28;103154.94;;;14.02;51.28
27613;BME280;15036;48.094;-1.690;2023-02-10T03:47:53;103162.31;;;14.01;51.43
27613;BME280;15036;48.094;-1.690;2023-02-10T03:50:19;103165.59;;;14.05;51.44
27613;BME280;15036;48.094;-1.690;2023-02-10T03:52:44;103164.06;;;14.02;51.53
27613;BME280;15036;48.094;-1.690;2023-02-10T03:55:09;103163.25;;;14.10;51.61
27613;BME280;15036;48.094;-1.690;2023-02-10T03:57:39;103167.81;;;14.01;51.55
27613;BME280;15036;48.094;-1.690;2023-02-10T04:00:05;103160.53;;;14.18;51.22
27613;BME280;15036;48.094;-1.690;2023-02-10T04:02:31;103164.25;;;14.09;51.30
27613;BME280;15036;48.094;-1.690;2023-02-10T04:04:56;103161.38;;;14.18;50.98
27613;BME280;15036;48.094;-1.690;2023-02-10T04:07:22;103167.69;;;14.11;51.25
27613;BME280;15036;48.094;-1.690;2023-02-10T04:09:47;103170.41;;;14.03;51.44
27613;BME280;15036;48.094;-1.690;2023-02-10T04:12:12;103176.69;;;13.95;51.80
27613;BME280;15036;48.094;-1.690;2023-02-10T04:14:38;103162.91;;;14.13;51.42
27613;BME280;15036;48.094;-1.690;2023-02-10T04:17:03;103166.28;;;14.07;51.29
27613;BME280;15036;48.094;-1.690;2023-02-10T04:19:28;103168.50;;;14.03;51.49
27613;BME280;15036;48.094;-1.690;2023-02-10T04:21:54;103172.66;;;14.07;51.38
27613;BME280;15036;48.094;-1.690;2023-02-10T04:24:19;103164.25;;;14.09;51.40
27613;BME280;15036;48.094;-1.690;2023-02-10T04:26:44;103168.75;;;14.10;51.46
27613;BME280;15036;48.094;-1.690;2023-02-10T04:29:10;103177.97;;;14.09;51.47
27613;BME280;15036;48.094;-1.690;2023-02-10T04:31:35;103179.91;;;14.08;51.40
27613;BME280;15036;48.094;-1.690;2023-02-10T04:34:01;103183.34;;;14.10;51.44
27613;BME280;15036;48.094;-1.690;2023-02-10T04:36:26;103174.81;;;14.21;51.12
27613;BME280;15036;48.094;-1.690;2023-02-10T04:38:51;103179.25;;;14.14;51.29
27613;BME280;15036;48.094;-1.690;2023-02-10T04:41:17;103163.94;;;14.37;50.79
27613;BME280;15036;48.094;-1.690;2023-02-10T04:43:43;103174.22;;;14.10;51.31
27613;BME280;15036;48.094;-1.690;2023-02-10T04:46:08;103175.81;;;14.20;51.21
27613;BME280;15036;48.094;-1.690;2023-02-10T04:48:34;103182.09;;;14.05;51.57
27613;BME280;15036;48.094;-1.690;2023-02-10T04:51:00;103183.28;;;14.02;51.73
27613;BME280;15036;48.094;-1.690;2023-02-10T04:53:30;103182.13;;;14.13;51.40
27613;BME280;15036;48.094;-1.690;2023-02-10T04:55:57;103183.59;;;13.99;51.62
27613;BME280;15036;48.094;-1.690;2023-02-10T04:58:22;103187.22;;;14.00;51.64
27613;BME280;15036;48.094;-1.690;2023-02-10T05:00:48;103193.00;;;13.97;51.82
27613;BME280;15036;48.094;-1.690;2023-02-10T05:03:13;103198.03;;;14.01;51.55
27613;BME280;15036;48.094;-1.690;2023-02-10T05:05:39;103197.81;;;13.94;51.59
27613;BME280;15036;48.094;-1.690;2023-02-10T05:08:04;103195.56;;;13.90;51.88
27613;BME280;15036;48.094;-1.690;2023-02-10T05:10:30;103207.31;;;14.00;51.72
27613;BME280;15036;48.094;-1.690;2023-02-10T05:13:01;103200.03;;;13.91;51.82
27613;BME280;15036;48.094;-1.690;2023-02-10T05:15:27;103209.13;;;13.91;51.83
27613;BME280;15036;48.094;-1.690;2023-02-10T05:17:52;103208.50;;;13.98;51.72
27613;BME280;15036;48.094;-1.690;2023-02-10T05:20:18;103209.84;;;13.93;51.98
27613;BME280;15036;48.094;-1.690;2023-02-10T05:22:43;103206.00;;;13.86;52.07
27613;BME280;15036;48.094;-1.690;2023-02-10T05:25:08;103212.03;;;13.90;51.92
27613;BME280;15036;48.094;-1.690;2023-02-10T05:27:35;103210.00;;;13.92;51.99
27613;BME280;15036;48.094;-1.690;2023-02-10T05:30:00;103211.34;;;13.88;52.23
27613;BME280;15036;48.094;-1.690;2023-02-10T05:32:25;103218.13;;;14.02;51.63
27613;BME280;15036;48.094;-1.690;2023-02-10T05:34:51;103210.00;;;13.92;51.81
27613;BME280;15036;48.094;-1.690;2023-02-10T05:37:16;103206.00;;;13.86;52.24
27613;BME280;15036;48.094;-1.690;2023-02-10T05:39:42;103203.09;;;13.88;51.83
27613;BME280;15036;48.094;-1.690;2023-02-10T05:42:07;103214.28;;;13.94;51.79
27613;BME280;15036;48.094;-1.690;2023-02-10T05:44:33;103218.38;;;13.90;51.75
27613;BME280;15036;48.094;-1.690;2023-02-10T05:46:58;103210.84;;;13.92;51.67
27613;BME280;15036;48.094;-1.690;2023-02-10T05:49:24;103219.78;;;13.94;51.85
27613;BME280;15036;48.094;-1.690;2023-02-10T05:51:50;103217.47;;;13.82;51.76
27613;BME280;15036;48.094;-1.690;2023-02-10T05:54:15;103228.22;;;13.75;52.17
27613;BME280;15036;48.094;-1.690;2023-02-10T05:56:40;103225.66;;;13.74;52.20
27613;BME280;15036;48.094;-1.690;2023-02-10T05:59:06;103227.25;;;13.84;52.09
27613;BME280;15036;48.094;-1.690;2023-02-10T06:01:32;103237.16;;;13.77;52.02
27613;BME280;15036;48.094;-1.690;2023-02-10T06:04:18;103240.31;;;13.82;52.09
27613;BME280;15036;48.094;-1.690;2023-02-10T06:06:50;103241.66;;;13.78;52.06
27613;BME280;15036;48.094;-1.690;2023-02-10T06:09:15;103233.41;;;13.78;52.10
27613;BME280;15036;48.094;-1.690;2023-02-10T06:11:41;103230.91;;;13.67;52.03
27613;BME280;15036;48.094;-1.690;2023-02-10T06:14:06;103242.59;;;13.69;52.41
27613;BME280;15036;48.094;-1.690;2023-02-10T06:16:31;103236.78;;;13.72;52.17
27613;BME280;15036;48.094;-1.690;2023-02-10T06:18:57;103236.28;;;13.77;52.21
27613;BME280;15036;48.094;-1.690;2023-02-10T06:21:23;103236.16;;;13.78;52.08
27613;BME280;15036;48.094;-1.690;2023-02-10T06:23:49;103242.50;;;13.79;52.28
27613;BME280;15036;48.094;-1.690;2023-02-10T06:26:15;103244.31;;;13.70;52.33
27613;BME280;15036;48.094;-1.690;2023-02-10T06:28:40;103240.53;;;13.71;52.21
27613;BME280;15036;48.094;-1.690;2023-02-10T06:31:06;103248.84;;;13.79;52.01
27613;BME280;15036;48.094;-1.690;2023-02-10T06:33:33;103256.84;;;13.73;52.22
27613;BME280;15036;48.094;-1.690;2023-02-10T06:36:01;103245.44;;;13.60;52.58
27613;BME280;15036;48.094;-1.690;2023-02-10T06:38:29;103253.97;;;13.74;52.12
27613;BME280;15036;48.094;-1.690;2023-02-10T06:41:03;103248.63;;;13.55;52.70
27613;BME280;15036;48.094;-1.690;2023-02-10T06:43:29;103256.25;;;13.61;52.55
27613;BME280;15036;48.094;-1.690;2023-02-10T06:45:54;103251.47;;;13.63;52.70
27613;BME280;15036;48.094;-1.690;2023-02-10T06:48:20;103257.47;;;13.67;52.55
27613;BME280;15036;48.094;-1.690;2023-02-10T06:50:45;103255.69;;;13.58;52.71
27613;BME280;15036;48.094;-1.690;2023-02-10T06:53:10;103250.75;;;13.61;52.91
27613;BME280;15036;48.094;-1.690;2023-02-10T06:55:36;103251.91;;;13.59;53.02
27613;BME280;15036;48.094;-1.690;2023-02-10T06:58:02;103258.81;;;13.45;53.12
27613;BME280;15036;48.094;-1.690;2023-02-10T07:00:29;103259.44;;;13.57;53.05
27613;BME280;15036;48.094;-1.690;2023-02-10T07:02:57;103259.44;;;13.57;53.16
27613;BME280;15036;48.094;-1.690;2023-02-10T07:05:23;103255.47;;;13.51;53.06
27613;BME280;15036;48.094;-1.690;2023-02-10T07:07:49;103261.91;;;13.60;52.94
27613;BME280;15036;48.094;-1.690;2023-02-10T07:10:16;103261.34;;;13.56;52.98
27613;BME280;15036;48.094;-1.690;2023-02-10T07:12:44;103264.09;;;13.56;53.15
27613;BME280;15036;48.094;-1.690;2023-02-10T07:15:12;103272.53;;;13.63;52.94
27613;BME280;15036;48.094;-1.690;2023-02-10T07:17:38;103272.41;;;13.64;53.00
27613;BME280;15036;48.094;-1.690;2023-02-10T07:20:04;103276.50;;;13.60;52.93
27613;BME280;15036;48.094;-1.690;2023-02-10T07:22:29;103271.91;;;13.69;52.49
27613;BME280;15036;48.094;-1.690;2023-02-10T07:24:55;103274.75;;;13.59;52.63
27613;BME280;15036;48.094;-1.690;2023-02-10T07:27:22;103271.28;;;13.57;52.60
27613;BME280;15036;48.094;-1.690;2023-02-10T07:29:47;103274.47;;;13.62;52.85
27613;BME280;15036;48.094;-1.690;2023-02-10T07:32:13;103276.78;;;13.57;52.83
27613;BME280;15036;48.094;-1.690;2023-02-10T07:34:38;103282.59;;;13.54;53.06
27613;BME280;15036;48.094;-1.690;2023-02-10T07:37:06;103288.47;;;13.59;53.14
27613;BME280;15036;48.094;-1.690;2023-02-10T07:39:31;103285.44;;;13.62;53.03
27613;BME280;15036;48.094;-1.690;2023-02-10T07:41:56;103292.09;;;13.60;52.99
27613;BME280;15036;48.094;-1.690;2023-02-10T07:44:23;103292.63;;;13.63;52.96
27613;BME280;15036;48.094;-1.690;2023-02-10T07:46:51;103298.44;;;13.60;53.08
27613;BME280;15036;48.094;-1.690;2023-02-10T07:49:16;103290.69;;;13.56;53.09
27613;BME280;15036;48.094;-1.690;2023-02-10T07:51:42;103293.66;;;13.62;52.97
27613;BME280;15036;48.094;-1.690;2023-02-10T07:54:16;103299.84;;;13.82;52.52
27613;BME280;15036;48.094;-1.690;2023-02-10T07:56:42;103303.41;;;13.74;52.73
27613;BME280;15036;48.094;-1.690;2023-02-10T07:59:07;103309.44;;;13.78;52.54
27613;BME280;15036;48.094;-1.690;2023-02-10T08:01:32;103307.56;;;13.78;52.59
27613;BME280;15036;48.094;-1.690;2023-02-10T08:03:59;103310.75;;;13.74;52.63
27613;BME280;15036;48.094;-1.690;2023-02-10T08:06:29;103317.59;;;13.70;52.97
27613;BME280;15036;48.094;-1.690;2023-02-10T08:09:12;103309.34;;;13.70;52.88
27613;BME280;15036;48.094;-1.690;2023-02-10T08:11:41;103309.19;;;13.71;52.71
27613;BME280;15036;48.094;-1.690;2023-02-10T08:14:20;103313.50;;;13.74;52.71
27613;BME280;15036;48.094;-1.690;2023-02-10T08:16:46;103316.47;;;13.63;53.13
27613;BME280;15036;48.094;-1.690;2023-02-10T08:19:12;103316.88;;;13.68;52.83
27613;BME280;15036;48.094;-1.690;2023-02-10T08:21:37;103325.28;;;13.66;52.84
27613;BME280;15036;48.094;-1.690;2023-02-10T08:24:02;103319.06;;;13.82;52.71
27613;BME280;15036;48.094;-1.690;2023-02-10T08:26:28;103325.19;;;13.76;53.09
27613;BME280;15036;48.094;-1.690;2023-02-10T08:28:53;103326.69;;;13.88;52.87
27613;BME280;15036;48.094;-1.690;2023-02-10T08:31:20;103338.28;;;14.00;52.79
27613;BME280;15036;48.094;-1.690;2023-02-10T08:33:46;103332.31;;;14.04;52.69
27613;BME280;15036;48.094;-1.690;2023-02-10T08:36:17;103335.28;;;14.11;52.61
27613;BME280;15036;48.094;-1.690;2023-02-10T08:38:44;103342.03;;;14.34;51.94
27613;BME280;15036;48.094;-1.690;2023-02-10T08:41:10;103340.75;;;14.28;51.73
27613;BME280;15036;48.094;-1.690;2023-02-10T08:43:36;103336.91;;;14.21;51.94
27613;BME280;15036;48.094;-1.690;2023-02-10T08:46:01;103336.84;;;14.31;51.76
27613;BME280;15036;48.094;-1.690;2023-02-10T08:48:27;103340.66;;;14.20;52.00
27613;BME280;15036;48.094;-1.690;2023-02-10T08:50:53;103343.22;;;14.31;51.62
27613;BME280;15036;48.094;-1.690;2023-02-10T08:53:25;103347.28;;;14.27;51.86
27613;BME280;15036;48.094;-1.690;2023-02-10T08:55:58;103345.38;;;14.45;51.51
27613;BME280;15036;48.094;-1.690;2023-02-10T08:58:25;103347.44;;;14.43;51.46
27613;BME280;15036;48.094;-1.690;2023-02-10T09:00:52;103344.34;;;14.46;51.31
27613;BME280;15036;48.094;-1.690;2023-02-10T09:03:18;103344.63;;;14.18;51.95
27613;BME280;15036;48.094;-1.690;2023-02-10T09:05:43;103343.56;;;14.36;51.51
27613;BME280;15036;48.094;-1.690;2023-02-10T09:08:11;103342.13;;;14.50;51.42
27613;BME280;15036;48.094;-1.690;2023-02-10T09:10:39;103349.19;;;14.52;51.44
27613;BME280;15036;48.094;-1.690;2023-02-10T09:13:04;103354.56;;;14.62;51.39
27613;BME280;15036;48.094;-1.690;2023-02-10T09:15:29;103357.50;;;14.60;51.27
27613;BME280;15036;48.094;-1.690;2023-02-10T09:17:54;103352.97;;;14.77;51.03
27613;BME280;15036;48.094;-1.690;2023-02-10T09:20:20;103358.72;;;14.40;51.26
27613;BME280;15036;48.094;-1.690;2023-02-10T09:22:45;103353.47;;;14.47;51.46
27613;BME280;15036;48.094;-1.690;2023-02-10T09:25:13;103351.53;;;14.65;51.21
27613;BME280;15036;48.094;-1.690;2023-02-10T09:27:38;103347.41;;;14.69;50.86
27613;BME280;15036;48.094;-1.690;2023-02-10T09:30:04;103352.69;;;14.62;51.05
27613;BME280;15036;48.094;-1.690;2023-02-10T09:32:29;103341.34;;;14.57;50.92
27613;BME280;15036;48.094;-1.690;2023-02-10T09:34:55;103350.88;;;14.71;50.86
27613;BME280;15036;48.094;-1.690;2023-02-10T09:37:20;103353.19;;;14.92;50.52
27613;BME280;15036;48.094;-1.690;2023-02-10T09:39:48;103356.00;;;15.00;50.43
27613;BME280;15036;48.094;-1.690;2023-02-10T09:42:33;103357.38;;;15.04;50.24
27613;BME280;15036;48.094;-1.690;2023-02-10T09:45:14;103347.28;;;15.12;50.27
27613;BME280;15036;48.094;-1.690;2023-02-10T09:47:50;103344.38;;;15.14;50.15
27613;BME280;15036;48.094;-1.690;2023-02-10T09:53:12;103347.91;;;15.40;50.07
27613;BME280;15036;48.094;-1.690;2023-02-10T09:55:49;103340.97;;;15.28;50.08
27613;BME280;15036;48.094;-1.690;2023-02-10T09:58:42;103347.25;;;15.04;50.29
27613;BME280;15036;48.094;-1.690;2023-02-10T10:06:18;103355.88;;;15.43;49.56
27613;BME280;15036;48.094;-1.690;2023-02-10T10:11:50;103359.59;;;15.92;48.75
27613;BME280;15036;48.094;-1.690;2023-02-10T10:14:25;103356.44;;;15.54;49.21
27613;BME280;15036;48.094;-1.690;2023-02-10T10:17:00;103352.88;;;15.94;48.61
27613;BME280;15036;48.094;-1.690;2023-02-10T10:25:56;103359.44;;;16.17;47.90
27613;BME280;15036;48.094;-1.690;2023-02-10T10:28:50;103366.13;;;15.91;48.26
27613;BME280;15036;48.094;-1.690;2023-02-10T10:31:23;103369.94;;;16.22;47.85
27613;BME280;15036;48.094;-1.690;2023-02-10T10:33:53;103366.31;;;16.29;47.58
27613;BME280;15036;48.094;-1.690;2023-02-10T10:36:22;103367.00;;;16.39;47.57
27613;BME280;15036;48.094;-1.690;2023-02-10T10:38:53;103367.19;;;16.22;47.48
27613;BME280;15036;48.094;-1.690;2023-02-10T10:41:25;103372.66;;;16.46;47.38
27613;BME280;15036;48.094;-1.690;2023-02-10T10:43:54;103375.81;;;16.51;47.34
27613;BME280;15036;48.094;-1.690;2023-02-10T10:49:09;103373.38;;;16.64;47.29
27613;BME280;15036;48.094;-1.690;2023-02-10T10:51:35;103368.91;;;16.39;47.54
27613;BME280;15036;48.094;-1.690;2023-02-10T10:54:01;103370.94;;;16.85;46.72
27613;BME280;15036;48.094;-1.690;2023-02-10T10:56:38;103368.69;;;16.81;46.80
27613;BME280;15036;48.094;-1.690;2023-02-10T10:59:16;103374.75;;;16.68;46.70
27613;BME280;15036;48.094;-1.690;2023-02-10T11:01:47;103369.16;;;17.00;46.27
27613;BME280;15036;48.094;-1.690;2023-02-10T11:04:19;103370.13;;;16.53;46.79
27613;BME280;15036;48.094;-1.690;2023-02-10T11:06:47;103373.28;;;16.96;46.25
27613;BME280;15036;48.094;-1.690;2023-02-10T11:09:23;103371.22;;;16.98;46.26
27613;BME280;15036;48.094;-1.690;2023-02-10T11:11:53;103365.63;;;16.68;46.95
27613;BME280;15036;48.094;-1.690;2023-02-10T11:14:22;103378.81;;;16.96;46.35
27613;BME280;15036;48.094;-1.690;2023-02-10T11:16:52;103372.09;;;16.91;46.71
27613;BME280;15036;48.094;-1.690;2023-02-10T11:19:24;103364.50;;;17.01;46.40
27613;BME280;15036;48.094;-1.690;2023-02-10T11:21:51;103376.84;;;17.21;46.26
27613;BME280;15036;48.094;-1.690;2023-02-10T11:29:23;103366.03;;;17.42;45.77
27613;BME280;15036;48.094;-1.690;2023-02-10T11:31:52;103368.03;;;17.17;46.17
27613;BME280;15036;48.094;-1.690;2023-02-10T11:36:49;103359.06;;;17.62;45.42
27613;BME280;15036;48.094;-1.690;2023-02-10T11:39:30;103351.97;;;17.60;45.39
27613;BME280;15036;48.094;-1.690;2023-02-10T11:41:57;103358.75;;;17.80;45.13
27613;BME280;15036;48.094;-1.690;2023-02-10T11:47:14;103347.03;;;18.00;44.84
27613;BME280;15036;48.094;-1.690;2023-02-10T11:49:46;103344.56;;;18.28;44.29
27613;BME280;15036;48.094;-1.690;2023-02-10T11:52:16;103343.13;;;18.32;43.98
27613;BME280;15036;48.094;-1.690;2023-02-10T11:54:42;103346.66;;;18.26;44.36
27613;BME280;15036;48.094;-1.690;2023-02-10T11:57:21;103341.69;;;18.36;44.11
27613;BME280;15036;48.094;-1.690;2023-02-10T12:00:37;103339.31;;;18.56;43.80
27613;BME280;15036;48.094;-1.690;2023-02-10T12:08:43;103326.13;;;18.72;43.42
27613;BME280;15036;48.094;-1.690;2023-02-10T12:19:02;103337.97;;;18.81;42.68
27613;BME280;15036;48.094;-1.690;2023-02-10T12:27:07;103323.03;;;19.26;42.43
27613;BME280;15036;48.094;-1.690;2023-02-10T12:45:59;103307.28;;;19.12;42.50
27613;BME280;15036;48.094;-1.690;2023-02-10T12:51:48;103299.44;;;19.30;41.86
27613;BME280;15036;48.094;-1.690;2023-02-10T12:55:02;103302.97;;;19.24;41.98
27613;BME280;15036;48.094;-1.690;2023-02-10T12:57:24;103302.31;;;19.22;42.21
27613;BME280;15036;48.094;-1.690;2023-02-10T12:59:57;103299.56;;;19.36;41.79
27613;BME280;15036;48.094;-1.690;2023-02-10T13:02:58;103298.13;;;19.40;41.72
27613;BME280;15036;48.094;-1.690;2023-02-10T13:05:32;103297.53;;;19.30;41.78
27613;BME280;15036;48.094;-1.690;2023-02-10T13:08:02;103301.69;;;19.55;41.30
27613;BME280;15036;48.094;-1.690;2023-02-10T13:10:46;103298.34;;;19.60;40.92
27613;BME280;15036;48.094;-1.690;2023-02-10T13:13:16;103289.19;;;19.80;40.47
27613;BME280;15036;48.094;-1.690;2023-02-10T13:16:23;103292.25;;;19.71;40.65
27613;BME280;15036;48.094;-1.690;2023-02-10T13:18:59;103289.47;;;19.71;40.68
27613;BME280;15036;48.094;-1.690;2023-02-10T13:24:21;103288.81;;;19.69;40.44
27613;BME280;15036;48.094;-1.690;2023-02-10T13:26:58;103283.16;;;19.77;40.03
27613;BME280;15036;48.094;-1.690;2023-02-10T13:34:58;103269.94;;;19.79;39.86
27613;BME280;15036;48.094;-1.690;2023-02-10T13:40:01;103259.50;;;20.23;38.92
27613;BME280;15036;48.094;-1.690;2023-02-10T13:42:36;103259.75;;;20.07;39.10
27613;BME280;15036;48.094;-1.690;2023-02-10T13:47:37;103249.09;;;20.32;38.93
27613;BME280;15036;48.094;-1.690;2023-02-10T13:57:58;103256.50;;;19.55;39.35
27613;BME280;15036;48.094;-1.690;2023-02-10T14:00:27;103250.75;;;19.56;39.19
27613;BME280;15036;48.094;-1.690;2023-02-10T14:05:50;103250.94;;;18.83;40.41
27613;BME280;15036;48.094;-1.690;2023-02-10T14:11:04;103251.00;;;18.90;40.80
27613;BME280;15036;48.094;-1.690;2023-02-10T14:13:33;103250.47;;;19.16;40.50
27613;BME280;15036;48.094;-1.690;2023-02-10T14:16:01;103251.44;;;19.23;40.67
27613;BME280;15036;48.094;-1.690;2023-02-10T14:18:34;103253.00;;;19.32;40.27
27613;BME280;15036;48.094;-1.690;2023-02-10T14:21:09;103252.00;;;18.53;40.99
27613;BME280;15036;48.094;-1.690;2023-02-10T14:23:39;103252.81;;;17.87;42.00
27613;BME280;15036;48.094;-1.690;2023-02-10T14:26:07;103255.69;;;18.60;41.20
27613;BME280;15036;48.094;-1.690;2023-02-10T14:28:36;103247.66;;;18.80;40.41
27613;BME280;15036;48.094;-1.690;2023-02-10T14:31:19;103250.28;;;18.81;40.35
27613;BME280;15036;48.094;-1.690;2023-02-10T14:33:55;103249.41;;;18.81;40.31
27613;BME280;15036;48.094;-1.690;2023-02-10T14:36:21;103248.44;;;17.93;42.10
27613;BME280;15036;48.094;-1.690;2023-02-10T14:38:58;103251.19;;;18.30;41.65
27613;BME280;15036;48.094;-1.690;2023-02-10T14:41:26;103245.56;;;18.24;41.87
27613;BME280;15036;48.094;-1.690;2023-02-10T14:43:52;103245.13;;;18.64;41.33
27613;BME280;15036;48.094;-1.690;2023-02-10T14:46:26;103250.25;;;18.38;41.40
27613;BME280;15036;48.094;-1.690;2023-02-10T14:48:58;103246.22;;;18.84;40.89